createdAt,value
2023-12-20T00:01:25.432Z,14.68
2023-12-20T00:03:52.145Z,12.77
2023-12-20T00:06:18.673Z,13.85
2023-12-20T00:08:45.326Z,12.40
2023-12-20T00:11:11.939Z,11.70
2023-12-20T00:13:38.452Z,11.60
2023-12-20T00:16:05.240Z,9.95
2023-12-20T00:18:31.736Z,9.75
2023-12-20T00:20:58.208Z,8.95
2023-12-20T00:23:24.806Z,9.20
2023-12-20T00:25:51.280Z,9.32
2023-12-20T00:28:17.767Z,9.02
2023-12-20T00:30:44.993Z,9.50
2023-12-20T00:33:11.578Z,9.20
2023-12-20T00:35:38.091Z,9.13
2023-12-20T00:38:06.169Z,8.30
2023-12-20T00:40:32.666Z,8.60
2023-12-20T00:42:59.253Z,9.18
2023-12-20T00:45:25.791Z,8.32
2023-12-20T00:47:52.357Z,10.23
2023-12-20T00:50:18.977Z,9.10
2023-12-20T00:52:45.469Z,8.45
2023-12-20T00:55:11.990Z,9.23
2023-12-20T00:57:38.607Z,9.60
2023-12-20T01:00:06.010Z,9.13
2023-12-20T01:02:32.514Z,9.27
2023-12-20T01:04:58.992Z,9.48
2023-12-20T01:07:25.510Z,8.77
2023-12-20T01:09:52.075Z,10.18
2023-12-20T01:12:18.681Z,9.63
2023-12-20T01:14:45.168Z,10.35
2023-12-20T01:17:11.728Z,10.77
2023-12-20T01:19:38.505Z,10.57
2023-12-20T01:22:05.317Z,10.65
2023-12-20T01:24:31.878Z,10.90
2023-12-20T01:26:58.690Z,10.82
2023-12-20T01:29:25.321Z,10.95
2023-12-20T01:31:52.001Z,9.77
2023-12-20T01:34:19.052Z,11.25
2023-12-20T01:36:45.710Z,9.73
2023-12-20T01:39:20.581Z,10.93
2023-12-20T01:41:51.922Z,11.85
2023-12-20T01:44:18.540Z,10.40
2023-12-20T01:46:45.161Z,10.52
2023-12-20T01:49:11.835Z,10.30
2023-12-20T01:51:38.468Z,12.32
2023-12-20T01:54:05.874Z,10.30
2023-12-20T01:56:32.616Z,10.00
2023-12-20T01:58:59.205Z,10.18
2023-12-20T02:01:26.098Z,9.55
2023-12-20T02:03:52.819Z,9.25
2023-12-20T02:06:19.737Z,9.85
2023-12-20T02:08:46.281Z,9.95
2023-12-20T02:11:12.938Z,9.98
2023-12-20T02:13:39.437Z,9.07
2023-12-20T02:16:06.616Z,9.70
2023-12-20T02:18:33.289Z,8.75
2023-12-20T02:20:59.804Z,9.30
2023-12-20T02:23:26.650Z,9.57
2023-12-20T02:25:53.152Z,9.93
2023-12-20T02:28:20.030Z,10.25
2023-12-20T02:30:46.606Z,9.52
2023-12-20T02:33:13.593Z,10.50
2023-12-20T02:35:40.091Z,10.50
2023-12-20T02:38:06.574Z,10.60
2023-12-20T02:40:33.450Z,10.88
2023-12-20T02:42:59.965Z,11.80
2023-12-20T02:45:27.924Z,12.90
2023-12-20T02:47:54.474Z,11.30
2023-12-20T02:50:21.011Z,10.88
2023-12-20T02:52:47.719Z,10.40
2023-12-20T02:55:14.306Z,12.90
2023-12-20T02:57:43.219Z,12.88
2023-12-20T03:00:11.635Z,11.23
2023-12-20T03:02:38.314Z,11.43
2023-12-20T03:05:05.179Z,11.23
2023-12-20T03:07:31.791Z,10.60
2023-12-20T03:10:11.495Z,10.73
2023-12-20T03:12:44.867Z,11.50
2023-12-20T03:15:11.629Z,10.70
2023-12-20T03:17:38.206Z,11.57
2023-12-20T03:20:05.271Z,10.05
2023-12-20T03:22:31.932Z,10.90
2023-12-20T03:24:58.686Z,10.52
2023-12-20T03:27:25.224Z,11.38
2023-12-20T03:29:51.752Z,11.10
2023-12-20T03:32:18.288Z,10.00
2023-12-20T03:34:44.911Z,12.07
2023-12-20T03:37:11.476Z,11.23
2023-12-20T03:39:38.027Z,10.85
2023-12-20T03:42:04.894Z,9.77
2023-12-20T03:44:31.379Z,10.23
2023-12-20T03:46:57.899Z,10.05
2023-12-20T03:49:24.669Z,10.15
2023-12-20T03:51:51.245Z,10.38
2023-12-20T03:54:17.768Z,9.77
2023-12-20T03:56:44.270Z,10.32
2023-12-20T03:59:10.747Z,11.05
2023-12-20T04:01:37.333Z,10.77
2023-12-20T04:04:04.431Z,10.10
2023-12-20T04:06:31.269Z,9.85
2023-12-20T04:08:57.807Z,10.25
2023-12-20T04:11:24.291Z,10.00
2023-12-20T04:13:50.774Z,12.15
2023-12-20T04:16:17.356Z,11.75
2023-12-20T04:18:43.978Z,10.88
2023-12-20T04:21:10.535Z,12.10
2023-12-20T04:23:37.040Z,10.93
2023-12-20T04:26:03.702Z,12.82
2023-12-20T04:28:33.157Z,12.98
2023-12-20T04:30:59.843Z,12.40
2023-12-20T04:33:26.371Z,11.73
2023-12-20T04:35:52.956Z,12.32
2023-12-20T04:38:19.415Z,13.00
2023-12-20T04:40:46.093Z,11.43
2023-12-20T04:43:12.566Z,11.80
2023-12-20T04:45:39.255Z,11.73
2023-12-20T04:48:06.331Z,12.75
2023-12-20T04:50:32.832Z,12.55
2023-12-20T04:52:59.312Z,14.40
2023-12-20T04:55:25.859Z,12.88
2023-12-20T04:57:52.387Z,11.65
2023-12-20T05:00:19.055Z,12.15
2023-12-20T05:02:45.592Z,12.75
2023-12-20T05:05:12.210Z,12.63
2023-12-20T05:07:38.881Z,13.85
2023-12-20T05:10:05.991Z,13.32
2023-12-20T05:12:32.529Z,13.63
2023-12-20T05:14:59.128Z,13.95
2023-12-20T05:17:25.664Z,13.23
2023-12-20T05:19:52.222Z,13.30
2023-12-20T05:22:20.481Z,14.35
2023-12-20T05:24:47.046Z,14.93
2023-12-20T05:27:13.634Z,14.18
2023-12-20T05:29:40.089Z,15.05
2023-12-20T05:32:06.726Z,13.60
2023-12-20T05:34:33.427Z,14.57
2023-12-20T05:37:00.059Z,15.00
2023-12-20T05:39:26.900Z,14.00
2023-12-20T05:41:53.431Z,13.70
2023-12-20T05:44:20.216Z,14.02
2023-12-20T05:46:46.751Z,12.90
2023-12-20T05:49:13.375Z,14.13
2023-12-20T05:51:39.962Z,14.43
2023-12-20T05:54:06.515Z,14.77
2023-12-20T05:56:33.064Z,13.65
2023-12-20T05:59:00.046Z,14.77
2023-12-20T06:01:26.694Z,15.25
2023-12-20T06:03:53.425Z,14.38
2023-12-20T06:06:20.045Z,13.82
2023-12-20T06:08:46.585Z,15.10
2023-12-20T06:11:14.607Z,14.20
2023-12-20T06:13:42.345Z,13.38
2023-12-20T06:16:09.036Z,14.38
2023-12-20T06:18:35.893Z,14.40
2023-12-20T06:21:03.440Z,15.52
2023-12-20T06:23:30.031Z,13.18
2023-12-20T06:25:56.548Z,15.48
2023-12-20T06:28:23.056Z,14.90
2023-12-20T06:30:51.010Z,14.27
2023-12-20T06:33:17.736Z,15.48
2023-12-20T06:35:44.248Z,14.43
2023-12-20T06:38:10.733Z,15.38
2023-12-20T06:40:37.328Z,15.75
2023-12-20T06:43:09.414Z,15.55
2023-12-20T06:45:43.268Z,15.07
2023-12-20T06:48:12.125Z,14.27
2023-12-20T06:50:41.101Z,14.15
2023-12-20T06:53:08.297Z,15.18
2023-12-20T06:55:36.807Z,15.30
2023-12-20T06:58:03.587Z,15.63
2023-12-20T07:00:30.398Z,15.07
2023-12-20T07:02:57.031Z,14.05
2023-12-20T07:05:23.595Z,13.82
2023-12-20T07:07:50.513Z,12.98
2023-12-20T07:10:17.261Z,14.90
2023-12-20T07:12:43.794Z,14.95
2023-12-20T07:15:10.500Z,14.95
2023-12-20T07:17:37.298Z,15.43
2023-12-20T07:20:05.288Z,14.70
2023-12-20T07:22:34.985Z,15.02
2023-12-20T07:25:01.887Z,14.30
2023-12-20T07:27:28.501Z,13.63
2023-12-20T07:29:55.145Z,13.40
2023-12-20T07:32:21.688Z,13.70
2023-12-20T07:34:48.614Z,13.00
2023-12-20T07:37:15.390Z,13.90
2023-12-20T07:39:42.459Z,13.73
2023-12-20T07:42:09.307Z,13.02
2023-12-20T07:44:36.917Z,14.70
2023-12-20T07:47:03.465Z,13.68
2023-12-20T07:49:31.109Z,13.85
2023-12-20T07:51:57.661Z,14.30
2023-12-20T07:54:24.163Z,13.27
2023-12-20T07:56:50.648Z,13.30
2023-12-20T07:59:25.453Z,13.45
2023-12-20T08:01:56.953Z,12.75
2023-12-20T08:04:23.628Z,13.02
2023-12-20T08:06:50.645Z,12.27
2023-12-20T08:09:17.197Z,13.45
2023-12-20T08:11:47.608Z,12.60
2023-12-20T08:14:14.387Z,14.20
2023-12-20T08:16:41.050Z,13.88
2023-12-20T08:19:07.641Z,13.18
2023-12-20T08:21:37.980Z,14.10
2023-12-20T08:24:05.176Z,13.75
2023-12-20T08:26:31.651Z,13.95
2023-12-20T08:29:01.462Z,13.23
2023-12-20T08:31:28.818Z,13.00
2023-12-20T08:33:55.659Z,13.95
2023-12-20T08:36:23.857Z,13.90
2023-12-20T08:38:50.649Z,13.30
2023-12-20T08:41:21.498Z,14.70
2023-12-20T08:43:48.140Z,14.38
2023-12-20T08:46:15.757Z,13.57
2023-12-20T08:48:42.426Z,13.45
2023-12-20T08:51:09.888Z,13.10
2023-12-20T08:53:36.526Z,13.10
2023-12-20T08:56:03.148Z,13.93
2023-12-20T08:58:30.127Z,15.25
2023-12-20T09:00:56.896Z,14.50
2023-12-20T09:03:23.442Z,14.20
2023-12-20T09:05:50.001Z,13.95
2023-12-20T09:08:16.488Z,13.97
2023-12-20T09:10:43.083Z,13.90
2023-12-20T09:13:09.646Z,12.95
2023-12-20T09:15:37.180Z,13.50
2023-12-20T09:18:04.639Z,13.10
2023-12-20T09:20:31.803Z,11.82
2023-12-20T09:22:58.700Z,11.10
2023-12-20T09:25:26.946Z,11.68
2023-12-20T09:27:53.824Z,12.10
2023-12-20T09:30:26.660Z,12.70
2023-12-20T09:32:55.166Z,12.10
2023-12-20T09:35:21.991Z,10.60
2023-12-20T09:37:48.776Z,10.60
2023-12-20T09:40:15.410Z,10.07
2023-12-20T09:42:47.924Z,11.20
2023-12-20T09:45:16.722Z,7.07
2023-12-20T09:47:44.800Z,8.15
2023-12-20T09:50:12.025Z,7.23
2023-12-20T09:52:40.098Z,7.77
2023-12-20T09:55:08.274Z,5.53
2023-12-20T09:57:34.884Z,4.53
2023-12-20T10:00:01.398Z,4.30
2023-12-20T10:02:28.517Z,4.60
2023-12-20T10:04:55.801Z,5.82
2023-12-20T10:07:23.470Z,5.00
2023-12-20T10:09:53.244Z,5.27
2023-12-20T10:12:19.765Z,4.17
2023-12-20T10:14:46.350Z,3.97
2023-12-20T10:17:12.843Z,3.90
2023-12-20T10:19:39.640Z,3.77
2023-12-20T10:22:06.539Z,3.80
2023-12-20T10:24:33.166Z,4.10
2023-12-20T10:27:09.436Z,3.92
2023-12-20T10:29:38.623Z,3.73
2023-12-20T10:32:25.520Z,3.57
2023-12-20T10:34:53.361Z,3.60
2023-12-20T10:37:20.135Z,3.40
2023-12-20T10:39:52.961Z,3.07
2023-12-20T10:42:22.930Z,3.90
2023-12-20T10:44:52.646Z,3.37
2023-12-20T10:47:19.869Z,3.67
2023-12-20T10:49:46.860Z,3.00
2023-12-20T10:52:14.348Z,3.27
2023-12-20T10:54:41.356Z,2.80
2023-12-20T10:57:08.253Z,3.47
2023-12-20T10:59:38.210Z,2.87
2023-12-20T11:02:08.817Z,2.93
2023-12-20T11:04:47.304Z,2.10
2023-12-20T11:07:28.430Z,2.20
2023-12-20T11:10:13.548Z,2.87
2023-12-20T11:12:47.684Z,3.00
2023-12-20T11:15:15.826Z,2.83
2023-12-20T11:17:48.968Z,3.33
2023-12-20T11:20:15.890Z,2.87
2023-12-20T11:22:53.973Z,2.43
2023-12-20T11:25:21.019Z,2.63
2023-12-20T11:28:08.209Z,2.40
2023-12-20T11:30:48.646Z,2.53
2023-12-20T11:33:16.648Z,2.50
2023-12-20T11:35:44.217Z,3.00
2023-12-20T11:38:11.405Z,2.30
2023-12-20T11:40:38.494Z,2.17
2023-12-20T11:43:07.982Z,2.90
2023-12-20T11:45:35.695Z,2.67
2023-12-20T11:48:05.830Z,2.53
2023-12-20T11:50:32.564Z,2.77
2023-12-20T11:52:59.220Z,2.57
2023-12-20T11:55:26.053Z,2.80
2023-12-20T11:57:53.148Z,2.90
2023-12-20T12:00:20.455Z,2.70
2023-12-20T12:02:59.253Z,2.93
2023-12-20T12:05:25.833Z,3.13
2023-12-20T12:07:52.489Z,3.23
2023-12-20T12:10:19.029Z,3.20
2023-12-20T12:12:45.784Z,2.63
2023-12-20T12:15:12.485Z,2.70
2023-12-20T12:17:39.579Z,2.57
2023-12-20T12:20:07.478Z,2.53
2023-12-20T12:22:34.788Z,2.83
2023-12-20T12:25:11.594Z,3.00
2023-12-20T12:27:39.265Z,3.37
2023-12-20T12:30:08.627Z,3.20
2023-12-20T12:32:35.723Z,2.70
2023-12-20T12:35:05.643Z,3.40
2023-12-20T12:37:32.253Z,2.57
2023-12-20T12:39:58.972Z,2.80
2023-12-20T12:42:29.681Z,2.50
2023-12-20T12:44:57.354Z,2.13
2023-12-20T12:47:24.075Z,1.53
2023-12-20T12:49:52.615Z,1.47
2023-12-20T12:52:19.236Z,1.40
2023-12-20T12:54:46.149Z,1.50
2023-12-20T12:57:13.034Z,1.20
2023-12-20T12:59:41.054Z,1.40
2023-12-20T13:02:08.023Z,1.30
2023-12-20T13:04:34.962Z,1.50
2023-12-20T13:07:01.681Z,1.67
2023-12-20T13:09:28.250Z,1.50
2023-12-20T13:11:55.964Z,1.60
2023-12-20T13:14:22.954Z,2.07
2023-12-20T13:16:49.457Z,1.90
2023-12-20T13:19:16.103Z,1.83
2023-12-20T13:21:42.657Z,1.80
2023-12-20T13:24:09.152Z,2.10
2023-12-20T13:26:35.695Z,2.20
2023-12-20T13:29:02.474Z,2.00
2023-12-20T13:31:29.684Z,2.20
2023-12-20T13:33:56.315Z,1.90
2023-12-20T13:36:22.928Z,2.67
2023-12-20T13:38:49.508Z,2.67
2023-12-20T13:41:16.022Z,2.30
2023-12-20T13:43:43.809Z,2.70
2023-12-20T13:46:10.429Z,2.03
2023-12-20T13:48:37.010Z,1.97
2023-12-20T13:51:04.105Z,1.60
2023-12-20T13:53:30.650Z,2.00
2023-12-20T13:55:57.300Z,2.13
2023-12-20T13:58:23.827Z,2.10
2023-12-20T14:00:50.526Z,2.10
2023-12-20T14:03:17.129Z,1.93
2023-12-20T14:05:43.658Z,2.10
2023-12-20T14:08:11.215Z,2.17
2023-12-20T14:10:37.871Z,2.10
2023-12-20T14:13:04.600Z,2.17
2023-12-20T14:15:31.176Z,1.97
2023-12-20T14:17:57.738Z,1.83
2023-12-20T14:20:24.599Z,1.97
2023-12-20T14:22:51.230Z,2.17
2023-12-20T14:25:17.763Z,1.73
2023-12-20T14:27:48.409Z,2.00
2023-12-20T14:30:16.115Z,1.97
2023-12-20T14:32:42.966Z,2.10
2023-12-20T14:35:09.994Z,2.40
2023-12-20T14:37:40.253Z,1.97
2023-12-20T14:40:17.556Z,1.93
2023-12-20T14:42:44.871Z,1.93
2023-12-20T14:45:11.438Z,1.97
2023-12-20T14:47:38.297Z,1.77
2023-12-20T14:50:05.775Z,1.90
2023-12-20T14:52:35.050Z,1.50
2023-12-20T14:55:03.775Z,2.17
2023-12-20T14:57:33.162Z,1.80
2023-12-20T14:59:59.670Z,2.10
2023-12-20T15:02:26.234Z,2.20
2023-12-20T15:04:52.851Z,1.90
2023-12-20T15:07:20.213Z,2.00
2023-12-20T15:09:48.430Z,2.00
2023-12-20T15:12:14.960Z,1.97
2023-12-20T15:14:41.469Z,1.90
2023-12-20T15:17:07.947Z,1.83
2023-12-20T15:19:34.515Z,2.00
2023-12-20T15:22:01.160Z,2.00
2023-12-20T15:24:29.828Z,2.00
2023-12-20T15:26:56.934Z,2.33
2023-12-20T15:29:23.417Z,1.77
2023-12-20T15:31:50.139Z,1.60
2023-12-20T15:34:16.790Z,2.10
2023-12-20T15:36:43.732Z,2.23
2023-12-20T15:39:10.267Z,2.88
2023-12-20T15:41:36.883Z,2.00
2023-12-20T15:44:03.624Z,2.00
2023-12-20T15:46:30.236Z,2.10
2023-12-20T15:48:56.965Z,2.05
2023-12-20T15:51:23.693Z,2.03
2023-12-20T15:53:50.448Z,2.70
2023-12-20T15:56:18.446Z,2.17
2023-12-20T15:58:45.297Z,2.10
2023-12-20T16:01:11.919Z,2.30
2023-12-20T16:03:41.349Z,2.10
2023-12-20T16:06:13.595Z,2.20
2023-12-20T16:08:40.176Z,2.10
2023-12-20T16:11:07.567Z,2.00
2023-12-20T16:13:34.359Z,1.80
2023-12-20T16:16:06.541Z,2.13
2023-12-20T16:18:33.906Z,1.73
2023-12-20T16:21:02.095Z,1.73
2023-12-20T16:23:28.589Z,1.93
2023-12-20T16:25:55.097Z,1.83
2023-12-20T16:28:21.736Z,1.70
2023-12-20T16:30:48.575Z,2.50
2023-12-20T16:33:15.249Z,1.73
2023-12-20T16:35:41.815Z,1.87
2023-12-20T16:38:08.280Z,2.23
2023-12-20T16:40:34.898Z,2.30
2023-12-20T16:43:01.671Z,2.20
2023-12-20T16:45:28.176Z,2.03
2023-12-20T16:47:54.665Z,2.27
2023-12-20T16:50:21.354Z,2.10
2023-12-20T16:52:52.232Z,2.60
2023-12-20T16:55:18.777Z,2.53
2023-12-20T16:57:45.571Z,2.40
2023-12-20T17:00:12.831Z,2.40
2023-12-20T17:02:40.463Z,2.40
2023-12-20T17:05:07.507Z,2.07
2023-12-20T17:07:34.397Z,1.93
2023-12-20T17:10:00.995Z,1.80
2023-12-20T17:12:27.515Z,1.87
2023-12-20T17:14:54.166Z,2.20
2023-12-20T17:17:20.874Z,1.80
2023-12-20T17:19:47.543Z,2.00
2023-12-20T17:22:14.252Z,2.13
2023-12-20T17:24:40.793Z,1.83
2023-12-20T17:27:07.313Z,1.87
2023-12-20T17:29:33.809Z,1.50
2023-12-20T17:32:00.373Z,2.37
2023-12-20T17:34:27.331Z,2.43
2023-12-20T17:36:54.043Z,2.60
2023-12-20T17:39:21.253Z,2.23
2023-12-20T17:41:47.814Z,2.30
2023-12-20T17:44:15.573Z,2.50
2023-12-20T17:46:42.244Z,2.70
2023-12-20T17:49:09.271Z,2.80
2023-12-20T17:51:35.832Z,2.67
2023-12-20T17:54:04.406Z,2.20
2023-12-20T17:56:31.343Z,2.70
2023-12-20T17:58:57.934Z,1.93
2023-12-20T18:01:24.575Z,2.23
2023-12-20T18:03:51.518Z,2.37
2023-12-20T18:06:18.128Z,2.30
2023-12-20T18:08:44.957Z,2.40
2023-12-20T18:11:11.464Z,1.67
2023-12-20T18:13:37.992Z,2.10
2023-12-20T18:16:10.388Z,2.50
2023-12-20T18:18:37.977Z,2.00
2023-12-20T18:21:05.031Z,1.90
2023-12-20T18:23:31.560Z,1.97
2023-12-20T18:25:58.369Z,2.23
2023-12-20T18:28:24.948Z,2.40
2023-12-20T18:30:51.652Z,2.00
2023-12-20T18:33:18.206Z,2.90
2023-12-20T18:35:46.324Z,2.25
2023-12-20T18:38:14.038Z,1.93
2023-12-20T18:40:46.190Z,2.20
2023-12-20T18:43:12.696Z,1.93
2023-12-20T18:45:39.220Z,2.13
2023-12-20T18:48:06.234Z,2.17
2023-12-20T18:50:32.863Z,2.30
2023-12-20T18:52:59.427Z,2.00
2023-12-20T18:55:26.698Z,2.00
2023-12-20T18:57:53.239Z,2.03
2023-12-20T19:00:19.788Z,2.47
2023-12-20T19:02:46.269Z,1.70
2023-12-20T19:05:14.517Z,1.42
2023-12-20T19:07:42.262Z,1.77
2023-12-20T19:10:08.858Z,1.50
2023-12-20T19:12:35.361Z,2.20
2023-12-20T19:15:01.868Z,1.70
2023-12-20T19:17:28.357Z,1.70
2023-12-20T19:19:54.993Z,1.50
2023-12-20T19:22:21.652Z,1.83
2023-12-20T19:24:48.227Z,2.10
2023-12-20T19:27:14.714Z,1.50
2023-12-20T19:29:41.180Z,1.27
2023-12-20T19:32:07.717Z,1.30
2023-12-20T19:34:34.234Z,1.63
2023-12-20T19:37:00.885Z,1.60
2023-12-20T19:39:27.429Z,3.17
2023-12-20T19:41:53.968Z,1.97
2023-12-20T19:44:22.173Z,1.57
2023-12-20T19:46:49.874Z,1.60
2023-12-20T19:49:16.551Z,2.20
2023-12-20T19:51:43.050Z,1.70
2023-12-20T19:54:09.614Z,2.17
2023-12-20T19:56:36.104Z,1.50
2023-12-20T19:59:02.590Z,3.57
2023-12-20T20:01:29.140Z,1.53
2023-12-20T20:03:55.789Z,1.63
2023-12-20T20:06:22.662Z,1.30
2023-12-20T20:08:49.230Z,1.50
2023-12-20T20:11:26.216Z,2.03
2023-12-20T20:13:59.877Z,2.10
2023-12-20T20:16:26.406Z,2.40
2023-12-20T20:18:53.048Z,1.90
2023-12-20T20:21:19.602Z,1.80
2023-12-20T20:23:46.113Z,1.57
2023-12-20T20:26:12.627Z,2.00
2023-12-20T20:28:39.157Z,2.23
2023-12-20T20:31:05.766Z,1.43
2023-12-20T20:33:32.406Z,2.10
2023-12-20T20:35:58.946Z,2.27
2023-12-20T20:38:26.193Z,1.50
2023-12-20T20:40:55.862Z,1.60
2023-12-20T20:43:22.730Z,1.50
2023-12-20T20:45:51.311Z,1.70
2023-12-20T20:48:27.136Z,1.20
2023-12-20T20:50:59.548Z,1.90
2023-12-20T20:53:26.248Z,1.57
2023-12-20T20:55:52.789Z,1.70
2023-12-20T20:58:19.528Z,1.50
2023-12-20T21:00:46.098Z,1.53
2023-12-20T21:03:12.695Z,1.70
2023-12-20T21:05:40.646Z,1.67
2023-12-20T21:08:07.653Z,1.50
2023-12-20T21:10:34.192Z,1.73
2023-12-20T21:13:00.822Z,1.00
2023-12-20T21:15:27.469Z,1.90
2023-12-20T21:17:54.199Z,1.67
2023-12-20T21:20:21.251Z,1.30
2023-12-20T21:22:47.832Z,1.63
2023-12-20T21:25:14.434Z,1.70
2023-12-20T21:27:41.750Z,1.83
2023-12-20T21:30:11.071Z,1.50
2023-12-20T21:32:38.556Z,1.67
2023-12-20T21:35:05.862Z,1.40
2023-12-20T21:37:32.575Z,1.33
2023-12-20T21:39:59.450Z,1.58
2023-12-20T21:42:26.032Z,1.20
2023-12-20T21:44:52.541Z,1.00
2023-12-20T21:47:19.026Z,1.60
2023-12-20T21:49:45.611Z,1.67
2023-12-20T21:52:12.259Z,1.60
2023-12-20T21:54:38.925Z,1.43
2023-12-20T21:57:05.450Z,1.73
2023-12-20T21:59:32.137Z,1.50
2023-12-20T22:01:58.892Z,1.33
2023-12-20T22:04:25.593Z,1.50
2023-12-20T22:06:52.124Z,1.30
2023-12-20T22:09:18.660Z,1.67
2023-12-20T22:11:45.313Z,1.40
2023-12-20T22:14:11.841Z,1.27
2023-12-20T22:16:41.737Z,1.47
2023-12-20T22:19:08.927Z,1.70
2023-12-20T22:21:35.562Z,1.60
2023-12-20T22:24:02.107Z,1.40
2023-12-20T22:26:28.723Z,1.40
2023-12-20T22:28:55.335Z,1.37
2023-12-20T22:31:22.060Z,1.60
2023-12-20T22:33:48.619Z,1.67
2023-12-20T22:36:15.213Z,1.40
2023-12-20T22:38:41.770Z,1.70
2023-12-20T22:41:11.192Z,2.70
2023-12-20T22:43:38.138Z,1.20
2023-12-20T22:46:05.495Z,1.40
2023-12-20T22:48:32.145Z,1.90
2023-12-20T22:50:59.020Z,1.10
2023-12-20T22:53:25.503Z,1.90
2023-12-20T22:55:52.036Z,1.13
2023-12-20T22:58:18.596Z,1.20
2023-12-20T23:00:45.141Z,1.80
2023-12-20T23:03:11.718Z,1.53
2023-12-20T23:05:38.179Z,1.90
2023-12-20T23:08:05.018Z,1.30
2023-12-20T23:10:33.457Z,1.47
2023-12-20T23:13:00.210Z,1.60
2023-12-20T23:15:27.401Z,1.50
2023-12-20T23:17:55.114Z,1.20
2023-12-20T23:20:21.676Z,1.50
2023-12-20T23:22:48.266Z,1.70
2023-12-20T23:25:15.620Z,1.10
2023-12-20T23:27:44.453Z,1.40
2023-12-20T23:30:11.570Z,1.20
2023-12-20T23:32:38.299Z,1.40
2023-12-20T23:35:13.328Z,1.20
2023-12-20T23:37:43.107Z,1.80
2023-12-20T23:40:10.376Z,1.13
2023-12-20T23:42:36.942Z,1.00
2023-12-20T23:45:03.681Z,1.00
2023-12-20T23:47:30.186Z,1.07
2023-12-20T23:49:56.826Z,1.20
2023-12-20T23:52:23.377Z,1.20
2023-12-20T23:54:50.245Z,1.60
2023-12-20T23:57:16.842Z,1.10
2023-12-20T23:59:43.376Z,1.10
